createdAt,value
2018-02-09T00:01:37.802Z,1.77
2018-02-09T00:04:05.676Z,1.57
2018-02-09T00:06:33.380Z,1.80
2018-02-09T00:09:01.358Z,1.57
2018-02-09T00:11:29.240Z,1.77
2018-02-09T00:13:56.977Z,1.30
2018-02-09T00:16:24.705Z,1.30
2018-02-09T00:18:53.525Z,1.47
2018-02-09T00:21:21.920Z,1.33
2018-02-09T00:23:49.704Z,1.50
2018-02-09T00:26:17.333Z,1.13
2018-02-09T00:28:45.211Z,1.37
2018-02-09T00:31:13.006Z,1.47
2018-02-09T00:33:40.802Z,1.20
2018-02-09T00:36:08.602Z,1.53
2018-02-09T00:38:36.312Z,0.90
2018-02-09T00:41:03.912Z,1.10
2018-02-09T00:43:31.542Z,0.97
2018-02-09T00:45:59.180Z,0.80
2018-02-09T00:48:27.772Z,1.00
2018-02-09T00:50:55.466Z,0.70
2018-02-09T00:53:23.294Z,1.10
2018-02-09T00:55:51.038Z,1.40
2018-02-09T00:58:18.685Z,1.50
2018-02-09T01:00:46.535Z,1.60
2018-02-09T01:03:14.282Z,1.90
2018-02-09T01:05:41.930Z,2.00
2018-02-09T01:08:10.290Z,1.73
2018-02-09T01:10:38.671Z,2.30
2018-02-09T01:13:07.252Z,1.67
2018-02-09T01:15:35.670Z,2.17
2018-02-09T01:18:03.471Z,2.17
2018-02-09T01:20:31.980Z,2.23
2018-02-09T01:23:00.498Z,2.27
2018-02-09T01:25:28.580Z,1.93
2018-02-09T01:27:56.365Z,2.67
2018-02-09T01:30:24.747Z,2.57
2018-02-09T01:32:52.425Z,2.90
2018-02-09T01:35:20.278Z,3.17
2018-02-09T01:37:47.928Z,3.17
2018-02-09T01:40:15.926Z,4.53
2018-02-09T01:42:43.525Z,3.93
2018-02-09T01:45:11.452Z,3.73
2018-02-09T01:47:39.225Z,3.70
2018-02-09T01:50:15.745Z,3.37
2018-02-09T01:52:43.479Z,3.60
2018-02-09T01:55:11.992Z,3.50
2018-02-09T01:57:40.345Z,3.77
2018-02-09T02:00:08.118Z,3.33
2018-02-09T02:02:36.766Z,2.93
2018-02-09T02:05:04.389Z,3.00
2018-02-09T02:07:32.100Z,3.03
2018-02-09T02:09:59.904Z,3.37
2018-02-09T02:12:27.631Z,2.87
2018-02-09T02:14:55.572Z,3.20
2018-02-09T02:17:23.961Z,3.73
2018-02-09T02:19:51.702Z,3.40
2018-02-09T02:22:19.350Z,2.90
2018-02-09T02:24:48.741Z,3.57
2018-02-09T02:27:16.671Z,3.03
2018-02-09T02:29:44.407Z,3.47
2018-02-09T02:32:12.003Z,3.00
2018-02-09T02:34:40.535Z,3.63
2018-02-09T02:37:08.201Z,3.47
2018-02-09T02:39:37.090Z,3.97
2018-02-09T02:42:04.879Z,3.53
2018-02-09T02:44:34.033Z,3.90
2018-02-09T02:47:02.869Z,3.73
2018-02-09T02:49:31.274Z,3.60
2018-02-09T02:51:59.587Z,3.43
2018-02-09T02:54:27.354Z,3.30
2018-02-09T02:56:55.094Z,2.90
2018-02-09T02:59:22.701Z,2.63
2018-02-09T03:01:50.450Z,2.80
2018-02-09T03:04:18.138Z,1.97
2018-02-09T03:06:45.810Z,2.60
2018-02-09T03:09:13.409Z,3.33
2018-02-09T03:11:41.809Z,2.50
2018-02-09T03:14:09.574Z,3.43
2018-02-09T03:16:37.186Z,3.30
2018-02-09T03:19:04.787Z,3.63
2018-02-09T03:21:33.090Z,3.53
2018-02-09T03:24:00.837Z,3.90
2018-02-09T03:26:28.614Z,3.80
2018-02-09T03:28:56.273Z,3.60
2018-02-09T03:31:23.996Z,4.40
2018-02-09T03:33:51.717Z,3.83
2018-02-09T03:36:20.218Z,4.33
2018-02-09T03:38:47.869Z,3.30
2018-02-09T03:41:16.269Z,3.33
2018-02-09T03:43:44.061Z,3.50
2018-02-09T03:46:11.672Z,3.23
2018-02-09T03:48:39.374Z,3.23
2018-02-09T03:51:07.062Z,2.40
2018-02-09T03:53:34.663Z,1.67
2018-02-09T03:56:03.043Z,2.40
2018-02-09T03:58:30.700Z,2.10
2018-02-09T04:00:58.359Z,1.97
2018-02-09T04:03:27.660Z,2.10
2018-02-09T04:05:56.143Z,1.57
2018-02-09T04:08:23.855Z,1.87
2018-02-09T04:10:51.475Z,1.80
2018-02-09T04:13:19.177Z,1.80
2018-02-09T04:15:47.162Z,1.53
2018-02-09T04:18:14.807Z,2.23
2018-02-09T04:20:42.471Z,1.80
2018-02-09T04:23:11.000Z,1.00
2018-02-09T04:25:38.643Z,1.00
2018-02-09T04:28:06.297Z,0.70
2018-02-09T04:30:33.906Z,0.93
2018-02-09T04:33:01.498Z,0.70
2018-02-09T04:35:29.151Z,0.87
2018-02-09T04:37:56.924Z,0.80
2018-02-09T04:40:24.588Z,0.70
2018-02-09T04:42:52.960Z,0.60
2018-02-09T04:45:20.630Z,0.70
2018-02-09T04:47:48.326Z,0.50
2018-02-09T04:50:16.047Z,0.50
2018-02-09T04:52:43.699Z,0.60
2018-02-09T04:55:11.532Z,0.50
2018-02-09T04:57:39.358Z,0.40
2018-02-09T05:00:07.072Z,0.43
2018-02-09T05:02:34.736Z,0.70
2018-02-09T05:05:02.430Z,0.80
2018-02-09T05:07:30.093Z,1.00
2018-02-09T05:09:57.854Z,0.80
2018-02-09T05:12:26.032Z,0.83
2018-02-09T05:14:53.855Z,0.80
2018-02-09T05:17:21.539Z,1.00
2018-02-09T05:19:49.227Z,0.80
2018-02-09T05:22:16.851Z,0.83
2018-02-09T05:24:45.244Z,1.00
2018-02-09T05:27:14.283Z,0.83
2018-02-09T05:29:41.879Z,0.80
2018-02-09T05:32:09.913Z,0.77
2018-02-09T05:34:37.555Z,0.93
2018-02-09T05:37:05.293Z,0.80
2018-02-09T05:39:33.089Z,0.93
2018-02-09T05:42:00.816Z,1.07
2018-02-09T05:44:28.504Z,1.40
2018-02-09T05:46:56.160Z,1.20
2018-02-09T05:49:23.742Z,1.47
2018-02-09T05:51:51.362Z,1.10
2018-02-09T05:54:19.786Z,1.13
2018-02-09T05:56:47.562Z,1.90
2018-02-09T05:59:15.260Z,1.27
2018-02-09T06:01:42.933Z,1.23
2018-02-09T06:04:10.654Z,1.63
2018-02-09T06:06:38.282Z,1.43
2018-02-09T06:09:06.747Z,1.33
2018-02-09T06:11:35.164Z,1.10
2018-02-09T06:14:02.830Z,1.03
2018-02-09T06:16:30.489Z,1.33
2018-02-09T06:18:58.109Z,0.80
2018-02-09T06:21:25.837Z,1.10
2018-02-09T06:23:53.567Z,1.13
2018-02-09T06:26:21.947Z,1.10
2018-02-09T06:28:51.324Z,1.00
2018-02-09T06:31:19.026Z,2.13
2018-02-09T06:33:46.926Z,1.40
2018-02-09T06:36:14.575Z,1.23
2018-02-09T06:38:42.199Z,1.13
2018-02-09T06:41:09.819Z,1.33
2018-02-09T06:43:37.537Z,1.03
2018-02-09T06:46:05.206Z,1.30
2018-02-09T06:48:32.868Z,1.03
2018-02-09T06:51:00.567Z,1.10
2018-02-09T06:53:28.174Z,1.37
2018-02-09T06:55:55.899Z,1.20
2018-02-09T06:58:23.607Z,1.03
2018-02-09T07:00:51.451Z,1.33
2018-02-09T07:03:19.140Z,0.90
2018-02-09T07:05:46.842Z,1.10
2018-02-09T07:08:15.334Z,1.37
2018-02-09T07:10:42.923Z,0.90
2018-02-09T07:13:10.581Z,1.13
2018-02-09T07:15:38.275Z,1.23
2018-02-09T07:18:05.937Z,1.13
2018-02-09T07:20:33.576Z,1.50
2018-02-09T07:23:01.270Z,1.33
2018-02-09T07:25:29.131Z,1.30
2018-02-09T07:27:56.858Z,1.03
2018-02-09T07:30:25.374Z,1.10
2018-02-09T07:32:53.088Z,1.10
2018-02-09T07:35:20.858Z,1.23
2018-02-09T07:37:48.551Z,1.23
2018-02-09T07:40:16.231Z,1.13
2018-02-09T07:42:43.972Z,1.40
2018-02-09T07:45:11.627Z,1.27
2018-02-09T07:47:39.674Z,1.90
2018-02-09T07:50:08.621Z,2.03
2018-02-09T07:52:37.635Z,1.47
2018-02-09T07:55:05.390Z,1.47
2018-02-09T07:57:33.066Z,2.10
2018-02-09T08:00:02.493Z,1.70
2018-02-09T08:02:30.125Z,1.57
2018-02-09T08:04:57.786Z,1.93
2018-02-09T08:07:25.445Z,2.13
2018-02-09T08:09:54.582Z,2.00
2018-02-09T08:12:22.238Z,1.80
2018-02-09T08:14:49.907Z,1.60
2018-02-09T08:17:17.553Z,2.20
2018-02-09T08:19:45.186Z,1.80
2018-02-09T08:22:12.778Z,2.00
2018-02-09T08:24:40.401Z,1.80
2018-02-09T08:27:08.793Z,1.70
2018-02-09T08:29:36.431Z,1.90
2018-02-09T08:32:04.797Z,2.30
2018-02-09T08:34:32.524Z,2.10
2018-02-09T08:37:00.119Z,1.90
2018-02-09T08:39:27.734Z,2.10
2018-02-09T08:41:55.397Z,2.05
2018-02-09T08:44:22.987Z,1.83
2018-02-09T08:46:50.797Z,1.33
2018-02-09T08:49:18.488Z,1.03
2018-02-09T08:51:46.077Z,1.50
2018-02-09T08:54:13.723Z,1.63
2018-02-09T08:56:41.395Z,1.70
2018-02-09T08:59:09.317Z,1.20
2018-02-09T09:01:37.083Z,1.13
2018-02-09T09:04:04.815Z,1.20
2018-02-09T09:06:32.538Z,1.07
2018-02-09T09:09:00.165Z,1.10
2018-02-09T09:11:27.908Z,1.50
2018-02-09T09:13:56.662Z,1.40
2018-02-09T09:16:24.443Z,1.13
2018-02-09T09:18:52.297Z,1.17
2018-02-09T09:21:21.696Z,1.17
2018-02-09T09:23:50.073Z,1.10
2018-02-09T09:26:17.786Z,1.30
2018-02-09T09:28:46.428Z,1.17
2018-02-09T09:31:14.569Z,1.23
2018-02-09T09:33:43.463Z,0.97
2018-02-09T09:36:11.258Z,1.07
2018-02-09T09:38:39.036Z,1.27
2018-02-09T09:41:06.819Z,0.97
2018-02-09T09:43:34.640Z,1.23
2018-02-09T09:46:02.565Z,1.10
2018-02-09T09:48:31.037Z,1.00
2018-02-09T09:50:58.862Z,1.10
2018-02-09T09:53:26.604Z,1.13
2018-02-09T09:55:54.439Z,1.13
2018-02-09T09:58:23.065Z,1.60
2018-02-09T10:00:50.805Z,1.30
2018-02-09T10:03:18.549Z,1.07
2018-02-09T10:05:46.314Z,1.47
2018-02-09T10:08:14.863Z,1.27
2018-02-09T10:10:42.560Z,1.23
2018-02-09T10:13:10.285Z,1.23
2018-02-09T10:15:38.038Z,1.20
2018-02-09T10:18:05.641Z,1.20
2018-02-09T10:20:34.150Z,1.40
2018-02-09T10:23:02.702Z,1.30
2018-02-09T10:25:30.398Z,1.37
2018-02-09T10:27:58.950Z,1.47
2018-02-09T10:30:26.717Z,1.60
2018-02-09T10:32:54.445Z,2.20
2018-02-09T10:35:22.125Z,1.47
2018-02-09T10:37:50.650Z,1.63
2018-02-09T10:40:18.378Z,2.20
2018-02-09T10:42:46.092Z,2.40
2018-02-09T10:45:13.922Z,1.43
2018-02-09T10:47:41.619Z,1.87
2018-02-09T10:50:09.404Z,1.70
2018-02-09T10:52:37.046Z,1.47
2018-02-09T10:55:05.640Z,1.40
2018-02-09T10:57:33.695Z,1.80
2018-02-09T11:00:01.282Z,1.80
2018-02-09T11:02:30.769Z,1.70
2018-02-09T11:04:58.425Z,2.10
2018-02-09T11:07:26.189Z,1.47
2018-02-09T11:09:53.993Z,1.80
2018-02-09T11:12:22.550Z,1.80
2018-02-09T11:14:50.727Z,1.60
2018-02-09T11:17:19.465Z,1.50
2018-02-09T11:19:47.977Z,1.80
2018-02-09T11:22:15.637Z,1.63
2018-02-09T11:24:43.337Z,1.80
2018-02-09T11:27:11.046Z,1.80
2018-02-09T11:29:39.056Z,1.20
2018-02-09T11:32:06.880Z,2.60
2018-02-09T11:34:34.857Z,1.63
2018-02-09T11:37:05.856Z,1.50
2018-02-09T11:39:34.406Z,1.60
2018-02-09T11:42:02.265Z,1.67
2018-02-09T11:44:29.921Z,1.80
2018-02-09T11:46:57.612Z,2.07
2018-02-09T11:49:25.263Z,1.80
2018-02-09T11:51:53.048Z,1.63
2018-02-09T11:54:20.843Z,1.50
2018-02-09T11:56:49.680Z,1.50
2018-02-09T11:59:18.035Z,1.20
2018-02-09T12:01:46.678Z,1.93
2018-02-09T12:04:14.518Z,1.63
2018-02-09T12:06:43.136Z,1.30
2018-02-09T12:09:11.074Z,1.60
2018-02-09T12:11:38.670Z,1.30
2018-02-09T12:14:06.390Z,1.43
2018-02-09T12:16:34.942Z,1.50
2018-02-09T12:19:02.725Z,1.20
2018-02-09T12:21:31.961Z,1.40
2018-02-09T12:23:59.625Z,1.70
2018-02-09T12:26:28.182Z,1.23
2018-02-09T12:28:56.548Z,1.40
2018-02-09T12:31:24.367Z,1.50
2018-02-09T12:33:52.774Z,0.83
2018-02-09T12:36:21.052Z,1.50
2018-02-09T12:38:48.743Z,1.37
2018-02-09T12:41:16.374Z,1.37
2018-02-09T12:43:44.227Z,1.93
2018-02-09T12:46:11.855Z,1.43
2018-02-09T12:48:39.577Z,1.80
2018-02-09T12:51:07.210Z,1.50
2018-02-09T12:53:34.945Z,1.40
2018-02-09T12:56:03.425Z,1.10
2018-02-09T12:58:31.924Z,1.03
2018-02-09T13:00:59.673Z,1.23
2018-02-09T13:03:28.138Z,1.07
2018-02-09T13:05:56.219Z,1.80
2018-02-09T13:08:24.875Z,1.37
2018-02-09T13:10:52.512Z,1.27
2018-02-09T13:13:21.018Z,1.47
2018-02-09T13:15:49.515Z,1.40
2018-02-09T13:18:28.990Z,1.93
2018-02-09T13:20:56.757Z,1.60
2018-02-09T13:23:35.995Z,1.30
2018-02-09T13:26:03.858Z,1.50
2018-02-09T13:28:43.735Z,2.23
2018-02-09T13:31:11.386Z,1.00
2018-02-09T13:33:39.129Z,1.40
2018-02-09T13:36:10.918Z,1.30
2018-02-09T13:38:39.473Z,1.60
2018-02-09T13:41:07.163Z,1.40
2018-02-09T13:43:34.838Z,1.10
2018-02-09T13:46:03.386Z,1.40
2018-02-09T13:48:31.052Z,1.20
2018-02-09T13:50:58.855Z,1.33
2018-02-09T13:53:26.573Z,1.27
2018-02-09T13:55:54.282Z,1.23
2018-02-09T13:58:21.975Z,1.43
2018-02-09T14:00:49.732Z,1.70
2018-02-09T14:03:18.118Z,1.20
2018-02-09T14:05:47.783Z,1.17
2018-02-09T14:08:15.475Z,1.20
2018-02-09T14:10:43.238Z,1.43
2018-02-09T14:13:11.694Z,1.50
2018-02-09T14:15:39.278Z,1.50
2018-02-09T14:18:06.896Z,1.53
2018-02-09T14:20:34.542Z,1.90
2018-02-09T14:23:02.142Z,1.10
2018-02-09T14:25:29.741Z,1.40
2018-02-09T14:27:57.382Z,1.80
2018-02-09T14:30:25.747Z,1.40
2018-02-09T14:32:53.338Z,1.10
2018-02-09T14:35:20.998Z,1.47
2018-02-09T14:37:49.380Z,1.13
2018-02-09T14:40:17.088Z,1.17
2018-02-09T14:42:44.693Z,1.13
2018-02-09T14:45:12.290Z,1.43
2018-02-09T14:47:40.727Z,1.40
2018-02-09T14:50:08.322Z,1.23
2018-02-09T14:52:36.034Z,1.50
2018-02-09T14:55:03.626Z,1.27
2018-02-09T14:57:31.218Z,1.37
2018-02-09T14:59:58.866Z,1.40
2018-02-09T15:02:26.491Z,1.47
2018-02-09T15:04:54.110Z,1.67
2018-02-09T15:07:22.586Z,1.20
2018-02-09T15:09:50.217Z,1.03
2018-02-09T15:12:17.827Z,1.10
2018-02-09T15:14:45.426Z,0.97
2018-02-09T15:17:13.095Z,0.90
2018-02-09T15:19:40.681Z,1.30
2018-02-09T15:22:08.545Z,1.17
2018-02-09T15:24:36.198Z,1.50
2018-02-09T15:27:03.814Z,1.43
2018-02-09T15:29:32.255Z,1.60
2018-02-09T15:32:00.028Z,1.33
2018-02-09T15:34:27.634Z,1.30
2018-02-09T15:36:55.426Z,1.47
2018-02-09T15:39:23.063Z,1.20
2018-02-09T15:41:51.456Z,1.00
2018-02-09T15:44:19.833Z,1.70
2018-02-09T15:46:48.284Z,1.27
2018-02-09T15:49:15.933Z,1.53
2018-02-09T15:51:43.531Z,1.37
2018-02-09T15:54:11.174Z,1.30
2018-02-09T15:56:38.843Z,1.13
2018-02-09T15:59:07.266Z,1.27
2018-02-09T16:01:34.853Z,1.40
2018-02-09T16:04:02.545Z,1.37
2018-02-09T16:06:30.178Z,1.10
2018-02-09T16:08:57.789Z,1.50
2018-02-09T16:11:25.434Z,1.00
2018-02-09T16:13:53.017Z,1.00
2018-02-09T16:16:22.148Z,1.57
2018-02-09T16:18:50.534Z,1.67
2018-02-09T16:21:18.954Z,1.53
2018-02-09T16:23:46.555Z,1.53
2018-02-09T16:26:14.947Z,1.47
2018-02-09T16:28:43.335Z,1.20
2018-02-09T16:31:10.956Z,1.30
2018-02-09T16:33:38.586Z,1.60
2018-02-09T16:36:06.214Z,1.57
2018-02-09T16:38:34.586Z,1.73
2018-02-09T16:41:02.226Z,1.50
2018-02-09T16:43:29.809Z,1.40
2018-02-09T16:45:57.447Z,1.77
2018-02-09T16:48:25.053Z,1.50
2018-02-09T16:50:52.694Z,1.30
2018-02-09T16:53:20.641Z,1.47
2018-02-09T16:55:48.280Z,1.50
2018-02-09T16:58:15.907Z,1.30
2018-02-09T17:00:43.530Z,1.23
2018-02-09T17:03:11.164Z,1.60
2018-02-09T17:05:39.765Z,1.30
2018-02-09T17:08:07.405Z,1.47
2018-02-09T17:10:35.809Z,1.77
2018-02-09T17:13:03.429Z,1.40
2018-02-09T17:15:31.018Z,1.33
2018-02-09T17:17:58.653Z,1.60
2018-02-09T17:20:26.239Z,1.57
2018-02-09T17:22:54.662Z,1.57
2018-02-09T17:25:22.259Z,1.77
2018-02-09T17:27:51.346Z,2.00
2018-02-09T17:30:18.990Z,1.70
2018-02-09T17:32:46.644Z,1.70
2018-02-09T17:35:14.286Z,2.27
2018-02-09T17:37:43.824Z,1.77
2018-02-09T17:40:11.546Z,2.13
2018-02-09T17:42:39.214Z,1.90
2018-02-09T17:45:07.598Z,1.53
2018-02-09T17:47:35.989Z,2.00
2018-02-09T17:50:03.605Z,1.80
2018-02-09T17:52:31.276Z,2.10
2018-02-09T17:54:58.859Z,1.73
2018-02-09T17:57:27.211Z,1.77
2018-02-09T17:59:54.828Z,1.57
2018-02-09T18:02:22.717Z,1.33
2018-02-09T18:04:50.331Z,1.60
2018-02-09T18:07:17.989Z,1.47
2018-02-09T18:09:45.616Z,1.90
2018-02-09T18:12:13.350Z,1.53
2018-02-09T18:14:41.771Z,1.83
2018-02-09T18:17:09.359Z,1.30
2018-02-09T18:19:37.973Z,1.63
2018-02-09T18:22:06.361Z,1.63
2018-02-09T18:24:33.952Z,1.50
2018-02-09T18:27:01.573Z,2.03
2018-02-09T18:29:29.937Z,1.80
2018-02-09T18:31:57.571Z,1.70
2018-02-09T18:34:25.173Z,1.63
2018-02-09T18:36:52.848Z,1.70
2018-02-09T18:39:21.290Z,1.80
2018-02-09T18:41:48.895Z,2.33
2018-02-09T18:44:16.524Z,2.10
2018-02-09T18:46:44.285Z,2.00
2018-02-09T18:49:12.761Z,1.30
2018-02-09T18:51:40.366Z,1.80
2018-02-09T18:54:08.022Z,1.27
2018-02-09T18:56:35.653Z,1.43
2018-02-09T18:59:03.231Z,1.50
2018-02-09T19:01:31.638Z,1.80
2018-02-09T19:03:59.253Z,1.60
2018-02-09T19:06:26.898Z,1.67
2018-02-09T19:08:54.503Z,1.40
2018-02-09T19:11:22.126Z,1.70
2018-02-09T19:13:49.714Z,1.60
2018-02-09T19:16:17.670Z,1.73
2018-02-09T19:18:45.254Z,1.43
2018-02-09T19:21:12.882Z,1.40
2018-02-09T19:23:40.471Z,1.93
2018-02-09T19:26:08.078Z,1.80
2018-02-09T19:28:35.665Z,1.80
2018-02-09T19:31:04.277Z,2.17
2018-02-09T19:33:31.870Z,1.83
2018-02-09T19:35:59.495Z,1.57
2018-02-09T19:38:27.110Z,1.37
2018-02-09T19:40:54.746Z,1.83
2018-02-09T19:43:22.384Z,1.57
2018-02-09T19:45:50.001Z,2.10
2018-02-09T19:48:17.658Z,1.93
2018-02-09T19:50:45.283Z,2.10
2018-02-09T19:53:12.922Z,2.40
2018-02-09T19:55:40.526Z,3.40
2018-02-09T19:58:08.158Z,2.70
2018-02-09T20:00:35.794Z,2.20
2018-02-09T20:03:03.422Z,1.90
2018-02-09T20:05:31.815Z,1.90
2018-02-09T20:07:59.437Z,2.50
2018-02-09T20:10:27.055Z,2.30
2018-02-09T20:12:54.649Z,2.50
2018-02-09T20:15:22.306Z,2.20
2018-02-09T20:17:50.786Z,2.20
2018-02-09T20:20:18.423Z,1.60
2018-02-09T20:22:46.039Z,1.97
2018-02-09T20:25:13.666Z,2.17
2018-02-09T20:27:41.248Z,2.57
2018-02-09T20:30:08.858Z,3.10
2018-02-09T20:32:36.486Z,2.80
2018-02-09T20:35:04.125Z,2.70
2018-02-09T20:37:32.489Z,2.67
2018-02-09T20:40:00.112Z,2.70
2018-02-09T20:42:27.717Z,2.20
2018-02-09T20:44:55.354Z,2.80
2018-02-09T20:47:22.950Z,2.27
2018-02-09T20:49:50.535Z,2.60
2018-02-09T20:52:18.955Z,2.27
2018-02-09T20:54:46.542Z,2.20
2018-02-09T20:57:14.139Z,2.70
2018-02-09T20:59:42.509Z,2.40
2018-02-09T21:02:10.128Z,2.50
2018-02-09T21:04:38.382Z,2.17
2018-02-09T21:07:06.002Z,2.87
2018-02-09T21:09:33.618Z,2.80
2018-02-09T21:12:01.234Z,2.23
2018-02-09T21:14:28.850Z,2.40
2018-02-09T21:16:56.530Z,2.10
2018-02-09T21:19:24.150Z,2.20
2018-02-09T21:21:52.511Z,2.17
2018-02-09T21:24:20.902Z,2.23
2018-02-09T21:26:49.263Z,2.70
2018-02-09T21:29:16.879Z,2.00
2018-02-09T21:31:44.460Z,2.43
2018-02-09T21:34:12.103Z,2.93
2018-02-09T21:36:39.730Z,2.50
2018-02-09T21:39:07.315Z,2.43
2018-02-09T21:41:35.722Z,5.50
2018-02-09T21:44:03.327Z,2.60
2018-02-09T21:46:30.946Z,4.10
2018-02-09T21:48:58.562Z,5.97
2018-02-09T21:51:26.149Z,4.87
2018-02-09T21:53:54.571Z,3.90
2018-02-09T21:56:22.162Z,4.00
2018-02-09T21:58:49.750Z,2.40
2018-02-09T22:01:18.146Z,2.30
2018-02-09T22:03:45.753Z,2.33
2018-02-09T22:06:13.381Z,2.43
2018-02-09T22:08:41.374Z,2.43
2018-02-09T22:11:09.006Z,2.40
2018-02-09T22:13:37.354Z,2.53
2018-02-09T22:16:05.018Z,2.50
2018-02-09T22:18:32.610Z,2.33
2018-02-09T22:21:00.247Z,2.30
2018-02-09T22:23:27.867Z,2.33
2018-02-09T22:25:55.474Z,2.50
2018-02-09T22:28:23.532Z,2.43
2018-02-09T22:30:51.886Z,2.87
2018-02-09T22:33:19.662Z,2.30
2018-02-09T22:35:47.254Z,2.30
2018-02-09T22:38:14.854Z,2.30
2018-02-09T22:40:43.306Z,2.60
2018-02-09T22:43:10.879Z,1.90
2018-02-09T22:45:39.296Z,1.80
2018-02-09T22:48:06.911Z,2.40
2018-02-09T22:50:34.552Z,2.73
2018-02-09T22:53:02.146Z,2.20
2018-02-09T22:55:29.773Z,2.07
2018-02-09T22:57:57.400Z,2.33
2018-02-09T23:00:25.741Z,2.10
2018-02-09T23:02:53.350Z,1.90
2018-02-09T23:05:20.947Z,1.93
2018-02-09T23:07:48.558Z,2.40
2018-02-09T23:10:16.170Z,2.80
2018-02-09T23:12:43.777Z,2.57
2018-02-09T23:15:12.158Z,2.50
2018-02-09T23:17:39.777Z,2.50
2018-02-09T23:20:07.437Z,2.77
2018-02-09T23:22:35.090Z,2.03
2018-02-09T23:25:02.678Z,2.13
2018-02-09T23:27:31.174Z,4.00
2018-02-09T23:29:59.644Z,3.50
2018-02-09T23:32:28.026Z,3.00
2018-02-09T23:34:55.639Z,2.57
2018-02-09T23:37:24.886Z,1.67
2018-02-09T23:39:52.482Z,2.80
2018-02-09T23:42:20.106Z,2.40
2018-02-09T23:44:47.727Z,2.50
2018-02-09T23:47:16.127Z,2.90
2018-02-09T23:49:43.711Z,2.47
2018-02-09T23:52:11.490Z,2.40
2018-02-09T23:54:39.115Z,2.50
2018-02-09T23:57:06.703Z,2.00
2018-02-09T23:59:34.294Z,2.60
